Time;durP1;ratioP1;P1;durP2;ratioP2;P2;SDS_P1;SDS_P2;PMS_P1;PMS_P2;Temp;Humidity;BMP_temperature;BMP_pressure;BME280_temperature;BME280_humidity;BME280_pressure;Samples;Min_cycle;Max_cycle;Signal;HPM_P1;HPM_P2
2021/12/28 00:01:31;;;;;;;47.90;27.60;;;;;;;9.57;100.00;94235.53;5077813;28;20471;-79
2021/12/28 00:03:58;;;;;;;44.00;28.73;;;;;;;9.62;100.00;94244.63;5113497;28;20443;-79
2021/12/28 00:06:25;;;;;;;49.07;29.50;;;;;;;9.57;100.00;94251.25;5113414;28;20490;-79
2021/12/28 00:08:52;;;;;;;38.93;24.50;;;;;;;9.45;100.00;94253.19;5113851;28;20458;-79
2021/12/28 00:11:19;;;;;;;29.27;19.00;;;;;;;9.27;100.00;94233.91;5113606;28;21085;-80
2021/12/28 00:13:46;;;;;;;34.60;25.60;;;;;;;9.33;100.00;94241.22;5116817;28;20435;-79
2021/12/28 00:18:56;;;;;;;32.43;21.83;;;;;;;9.48;100.00;94252.06;5014888;28;20565;-80
2021/12/28 00:21:23;;;;;;;31.37;20.00;;;;;;;9.54;100.00;94254.13;4966050;28;20440;-79
2021/12/28 00:23:50;;;;;;;30.50;20.10;;;;;;;9.58;100.00;94253.75;5014743;28;20873;-79
2021/12/28 00:26:17;;;;;;;31.73;19.87;;;;;;;9.60;100.00;94258.84;5014691;28;20974;-79
2021/12/28 00:28:45;;;;;;;26.73;20.70;;;;;;;9.64;100.00;94262.81;5015487;28;20922;-79
2021/12/28 00:31:15;;;;;;;23.93;17.80;;;;;;;9.66;100.00;94267.91;4966004;28;20453;-79
2021/12/28 00:33:44;;;;;;;28.80;19.60;;;;;;;9.66;100.00;94263.50;5014997;28;20475;-79
2021/12/28 00:36:11;;;;;;;39.20;21.20;;;;;;;9.69;100.00;94268.47;5015158;28;20458;-79
2021/12/28 00:38:38;;;;;;;31.90;18.67;;;;;;;9.71;100.00;94263.09;5014997;28;21027;-79
2021/12/28 00:41:05;;;;;;;21.87;17.10;;;;;;;9.75;100.00;94259.22;5015097;28;20438;-79
2021/12/28 00:43:33;;;;;;;25.07;18.10;;;;;;;9.76;100.00;94253.81;5015136;28;20582;-79
2021/12/28 00:46:00;;;;;;;27.80;16.73;;;;;;;9.74;99.47;94250.53;5014892;28;20431;-79
2021/12/28 00:48:29;;;;;;;26.57;20.33;;;;;;;9.70;100.00;94250.94;5015052;28;20915;-79
2021/12/28 00:50:56;;;;;;;28.93;21.00;;;;;;;9.70;100.00;94261.44;5015157;28;20447;-79
2021/12/28 00:53:24;;;;;;;28.83;17.30;;;;;;;9.68;100.00;94253.72;5014490;28;20435;-79
2021/12/28 00:55:51;;;;;;;25.10;15.80;;;;;;;9.65;100.00;94254.00;5049986;28;20466;-79
2021/12/28 00:58:19;;;;;;;27.53;17.80;;;;;;;9.53;100.00;94234.16;5116422;28;20489;-79
2021/12/28 01:00:46;;;;;;;27.90;16.67;;;;;;;9.57;100.00;94243.41;5116282;28;20792;-79
2021/12/28 01:03:14;;;;;;;22.47;15.40;;;;;;;9.56;100.00;94245.19;5116659;28;20447;-79
2021/12/28 01:05:43;;;;;;;21.77;16.80;;;;;;;9.61;100.00;94247.38;5116680;28;20448;-79
2021/12/28 01:08:11;;;;;;;26.57;17.60;;;;;;;9.62;100.00;94249.03;5116762;28;20439;-79
2021/12/28 01:10:41;;;;;;;23.40;17.10;;;;;;;9.52;100.00;94237.72;5116703;28;20428;-79
2021/12/28 01:13:09;;;;;;;23.47;17.73;;;;;;;9.51;100.00;94246.56;5116647;28;20431;-79
2021/12/28 01:15:36;;;;;;;19.00;16.77;;;;;;;9.56;100.00;94249.59;5116696;28;20442;-79
2021/12/28 01:18:03;;;;;;;23.07;17.20;;;;;;;9.56;99.94;94247.00;5115947;28;21080;-79
2021/12/28 01:20:30;;;;;;;23.37;15.17;;;;;;;9.62;100.00;94256.91;5116127;28;20427;-79
2021/12/28 01:22:58;;;;;;;21.27;16.60;;;;;;;9.65;100.00;94259.22;5116064;28;20453;-79
2021/12/28 01:25:26;;;;;;;24.10;16.50;;;;;;;9.69;100.00;94254.53;5114625;28;20442;-79
2021/12/28 01:27:53;;;;;;;22.97;16.20;;;;;;;9.71;100.00;94261.28;5116180;28;20445;-79
2021/12/28 01:30:22;;;;;;;19.87;14.40;;;;;;;9.72;100.00;94249.00;5115977;28;20431;-79
2021/12/28 01:32:51;;;;;;;22.37;15.50;;;;;;;9.75;100.00;94252.19;5116146;28;20442;-79
2021/12/28 01:35:20;;;;;;;19.20;13.70;;;;;;;9.78;100.00;94254.50;5115823;28;20438;-79
2021/12/28 01:37:48;;;;;;;18.50;13.33;;;;;;;9.79;100.00;94248.31;5115809;28;20450;-79
2021/12/28 01:40:20;;;;;;;19.50;13.23;;;;;;;9.84;100.00;94253.97;5116050;28;20446;-79
2021/12/28 01:43:01;;;;;;;20.70;13.60;;;;;;;9.83;100.00;94254.94;5116703;28;20459;-79
2021/12/28 01:45:37;;;;;;;16.60;12.83;;;;;;;9.84;100.00;94261.84;5115723;28;20584;-79
2021/12/28 01:48:04;;;;;;;15.87;12.50;;;;;;;9.87;100.00;94253.69;5115644;28;20454;-79
2021/12/28 01:50:31;;;;;;;15.30;11.67;;;;;;;9.86;100.00;94257.28;5115746;28;20443;-79
2021/12/28 01:52:59;;;;;;;14.43;12.93;;;;;;;9.85;100.00;94258.25;5115943;28;20446;-79
2021/12/28 01:55:27;;;;;;;15.07;12.27;;;;;;;9.81;100.00;94253.41;5115468;28;20466;-79
2021/12/28 01:57:54;;;;;;;20.87;13.57;;;;;;;9.82;100.00;94244.56;5115187;28;20798;-79
2021/12/28 02:00:23;;;;;;;19.83;15.40;;;;;;;9.80;100.00;94249.13;5115518;28;20446;-79
2021/12/28 02:02:50;;;;;;;16.63;13.80;;;;;;;9.78;100.00;94246.66;5115887;28;20530;-79
2021/12/28 02:05:17;;;;;;;18.67;14.17;;;;;;;9.88;100.00;94244.84;5115396;28;20435;-79
2021/12/28 02:07:44;;;;;;;21.63;15.43;;;;;;;9.85;100.00;94245.16;5115342;28;20438;-79
2021/12/28 02:10:11;;;;;;;21.03;14.50;;;;;;;9.91;100.00;94243.75;5115577;28;20439;-79
2021/12/28 02:12:39;;;;;;;17.80;12.97;;;;;;;9.95;100.00;94245.09;5115470;28;20974;-79
2021/12/28 02:15:12;;;;;;;18.00;13.63;;;;;;;9.97;100.00;94243.16;5115564;28;20918;-79
2021/12/28 02:17:39;;;;;;;19.20;14.33;;;;;;;9.73;100.00;94245.44;5115626;28;20448;-79
2021/12/28 02:20:11;;;;;;;17.53;13.57;;;;;;;9.62;100.00;94243.81;5115394;28;20599;-79
2021/12/28 02:22:38;;;;;;;21.67;15.83;;;;;;;9.57;100.00;94243.41;5115164;28;20439;-79
2021/12/28 02:25:06;;;;;;;22.30;16.87;;;;;;;9.65;100.00;94247.94;5115196;28;20449;-79
2021/12/28 02:27:34;;;;;;;19.97;15.27;;;;;;;9.71;100.00;94242.13;5079467;28;20449;-79
2021/12/28 02:30:02;;;;;;;19.60;15.00;;;;;;;9.72;100.00;94236.75;5114921;28;20891;-79
2021/12/28 02:32:31;;;;;;;19.50;14.60;;;;;;;9.74;100.00;94242.66;5115422;28;20447;-79
2021/12/28 02:34:58;;;;;;;22.07;14.40;;;;;;;9.76;100.00;94240.72;5114923;28;20455;-79
2021/12/28 02:37:27;;;;;;;24.90;16.50;;;;;;;9.77;100.00;94239.75;5115360;28;20499;-79
2021/12/28 02:39:54;;;;;;;22.50;17.83;;;;;;;9.65;100.00;94227.81;5115059;28;20489;-79
2021/12/28 02:42:23;;;;;;;30.03;21.30;;;;;;;9.63;100.00;94221.88;5115242;28;20462;-79
2021/12/28 02:44:59;;;;;;;40.80;22.70;;;;;;;9.66;100.00;94228.63;5115079;28;20457;-79
2021/12/28 02:47:26;;;;;;;32.20;21.70;;;;;;;9.64;100.00;94226.16;5115185;28;20777;-79
2021/12/28 02:49:53;;;;;;;31.63;20.63;;;;;;;9.64;100.00;94231.38;5114804;28;20530;-80
2021/12/28 02:52:20;;;;;;;31.73;21.97;;;;;;;9.69;100.00;94234.41;5114710;28;20462;-79
2021/12/28 02:54:49;;;;;;;39.27;24.13;;;;;;;9.68;100.00;94239.78;5114444;28;20458;-79
2021/12/28 02:57:15;;;;;;;30.23;20.30;;;;;;;9.71;100.00;94245.56;5114501;28;20443;-79
2021/12/28 02:59:48;;;;;;;33.70;21.10;;;;;;;9.73;100.00;94242.81;5078747;28;20494;-79
2021/12/28 03:02:18;;;;;;;40.30;23.80;;;;;;;9.73;100.00;94248.03;5114206;28;20438;-79
2021/12/28 03:04:45;;;;;;;38.03;26.80;;;;;;;9.72;100.00;94249.84;5113946;28;20453;-79
2021/12/28 03:07:12;;;;;;;43.80;28.03;;;;;;;9.66;100.00;94245.16;5114121;28;20442;-78
2021/12/28 03:09:40;;;;;;;43.23;27.57;;;;;;;9.50;100.00;94256.19;5114086;28;20456;-79
2021/12/28 03:12:12;;;;;;;39.37;25.27;;;;;;;9.57;100.00;94259.13;5113889;28;20438;-78
2021/12/28 03:14:39;;;;;;;46.37;26.37;;;;;;;9.59;100.00;94258.00;5062838;28;20503;-79
2021/12/28 03:17:07;;;;;;;41.87;26.10;;;;;;;9.52;100.00;94243.78;5114205;28;20443;-79
2021/12/28 03:19:36;;;;;;;59.30;27.23;;;;;;;9.52;100.00;94250.81;5114431;28;20489;-79
2021/12/28 03:22:03;;;;;;;45.77;28.70;;;;;;;9.40;100.00;94244.09;5114499;28;20446;-79
2021/12/28 03:24:30;;;;;;;38.70;22.70;;;;;;;9.35;100.00;94251.53;5078530;28;20705;-79
2021/12/28 03:26:57;;;;;;;38.40;22.80;;;;;;;9.38;100.00;94246.03;5114434;28;20438;-79
2021/12/28 03:29:25;;;;;;;37.10;23.80;;;;;;;9.43;100.00;94259.53;5113876;28;20458;-79
2021/12/28 03:31:52;;;;;;;35.40;24.77;;;;;;;9.47;100.00;94261.72;5113881;28;20543;-79
2021/12/28 03:34:19;;;;;;;43.30;27.73;;;;;;;9.51;100.00;94257.03;5113709;28;20518;-79
2021/12/28 03:36:46;;;;;;;40.33;24.90;;;;;;;9.57;100.00;94251.25;5114014;28;20515;-79
2021/12/28 03:39:13;;;;;;;39.27;23.77;;;;;;;9.45;100.00;94241.88;5113694;28;20834;-79
2021/12/28 03:41:40;;;;;;;41.07;27.17;;;;;;;9.33;100.00;94243.81;5113900;28;20883;-79
2021/12/28 03:44:07;;;;;;;36.77;23.30;;;;;;;9.42;100.00;94244.78;5113841;28;20841;-79
2021/12/28 03:46:36;;;;;;;38.33;25.30;;;;;;;9.48;100.00;94245.03;5113732;28;20439;-79
2021/12/28 03:49:04;;;;;;;38.57;23.60;;;;;;;9.45;100.00;94241.88;5081687;28;20464;-79
2021/12/28 03:51:31;;;;;;;29.47;22.93;;;;;;;9.43;100.00;94251.66;5118729;28;20777;-80
2021/12/28 03:53:58;;;;;;;26.20;19.60;;;;;;;9.32;100.00;94248.25;5117969;28;20457;-80
2021/12/28 03:56:25;;;;;;;22.07;16.63;;;;;;;9.32;100.00;94245.63;5119174;28;20807;-80
2021/12/28 03:58:53;;;;;;;17.27;13.90;;;;;;;9.34;100.00;94242.88;5118152;28;20984;-80
2021/12/28 04:01:24;;;;;;;24.03;16.83;;;;;;;9.33;100.00;94243.81;5118248;28;20450;-79
2021/12/28 04:03:52;;;;;;;25.50;17.40;;;;;;;9.32;100.00;94245.63;5118463;28;20462;-79
2021/12/28 04:06:20;;;;;;;37.30;20.40;;;;;;;9.31;100.00;94243.97;5118118;28;20451;-79
2021/12/28 04:08:48;;;;;;;35.13;22.60;;;;;;;9.38;100.00;94240.78;5118319;28;20437;-79
2021/12/28 04:11:25;;;;;;;21.53;18.27;;;;;;;9.40;100.00;94246.72;5118168;28;20810;-79
2021/12/28 04:13:55;;;;;;;32.70;20.13;;;;;;;9.42;100.00;94243.00;5118166;28;20464;-79
2021/12/28 04:16:22;;;;;;;26.00;19.90;;;;;;;9.45;100.00;94241.88;5117783;28;20830;-79
2021/12/28 04:18:50;;;;;;;34.37;20.57;;;;;;;9.45;100.00;94242.72;5117792;28;20467;-79
2021/12/28 04:21:18;;;;;;;29.43;19.50;;;;;;;9.42;100.00;94252.63;5117753;28;20432;-79
2021/12/28 04:23:46;;;;;;;50.60;25.47;;;;;;;9.42;100.00;94250.84;5118288;28;20783;-79
2021/12/28 04:26:13;;;;;;;89.73;45.93;;;;;;;9.34;100.00;94249.88;5117484;28;20937;-79
2021/12/28 04:28:40;;;;;;;100.63;50.53;;;;;;;9.30;100.00;94250.16;5117483;28;20450;-79
2021/12/28 04:31:08;;;;;;;89.67;50.63;;;;;;;9.30;100.00;94250.16;5117474;28;20445;-79
2021/12/28 04:33:37;;;;;;;69.80;37.60;;;;;;;9.29;100.00;94259.00;5117670;28;20434;-79
2021/12/28 04:36:07;;;;;;;54.63;31.17;;;;;;;9.26;100.00;94256.66;5117265;28;20853;-79
2021/12/28 04:38:35;;;;;;;61.93;30.87;;;;;;;9.28;100.00;94252.09;5117780;28;20457;-79
2021/12/28 04:41:03;;;;;;;51.97;29.20;;;;;;;9.20;100.00;94244.09;5117592;28;20434;-78
2021/12/28 04:43:30;;;;;;;56.97;32.23;;;;;;;9.11;100.00;94247.53;5117113;28;20438;-79
2021/12/28 04:45:57;;;;;;;53.27;30.97;;;;;;;9.09;100.00;94254.69;5117068;28;20882;-79
2021/12/28 04:48:24;;;;;;;61.77;37.20;;;;;;;9.09;100.00;94259.94;5117430;28;20825;-79
2021/12/28 04:50:51;;;;;;;52.60;31.23;;;;;;;9.10;100.00;94258.97;5117334;28;20461;-79
2021/12/28 04:53:18;;;;;;;42.23;27.53;;;;;;;9.09;100.00;94267.78;5117072;28;20437;-80
2021/12/28 04:55:48;;;;;;;39.37;27.10;;;;;;;9.05;100.00;94273.44;5117265;28;20470;-79
2021/12/28 04:58:16;;;;;;;51.80;27.80;;;;;;;9.05;100.00;94266.41;5117024;28;20453;-80
2021/12/28 05:00:44;;;;;;;53.05;30.25;;;;;;;9.07;99.95;94269.72;5081366;28;20934;-79
2021/12/28 05:03:12;;;;;;;51.00;31.17;;;;;;;9.07;99.28;94264.47;5117276;28;20200;-79
2021/12/28 05:05:43;;;;;;;43.73;28.00;;;;;;;9.06;98.92;94267.25;5082025;28;20476;-79
2021/12/28 05:08:10;;;;;;;42.43;24.90;;;;;;;9.03;98.94;94268.34;5117521;28;20465;-79
2021/12/28 05:10:37;;;;;;;32.30;19.60;;;;;;;8.99;99.61;94272.19;5117328;28;20430;-79
2021/12/28 05:13:06;;;;;;;32.60;16.90;;;;;;;8.97;99.47;94267.09;5117312;28;20795;-78
2021/12/28 05:15:36;;;;;;;23.70;18.63;;;;;;;8.94;98.97;94269.13;5117552;28;20435;-79
2021/12/28 05:18:04;;;;;;;24.63;19.20;;;;;;;8.93;99.49;94268.31;5116659;28;20439;-79
2021/12/28 05:20:31;;;;;;;23.63;16.27;;;;;;;8.92;99.00;94264.03;5117359;28;20556;-79
2021/12/28 05:22:58;;;;;;;20.10;13.37;;;;;;;8.94;99.07;94263.91;5118040;28;20439;-79
2021/12/28 05:25:25;;;;;;;24.10;14.10;;;;;;;8.94;98.05;94263.91;5117814;28;20438;-79
2021/12/28 05:27:52;;;;;;;18.70;13.70;;;;;;;8.93;98.31;94265.69;5118054;28;20446;-79
2021/12/28 05:30:20;;;;;;;17.60;12.40;;;;;;;8.92;97.99;94266.66;5117323;28;20956;-79
2021/12/28 05:32:47;;;;;;;24.83;13.47;;;;;;;8.89;97.53;94253.03;5117276;28;20443;-79
2021/12/28 05:35:15;;;;;;;31.30;14.33;;;;;;;8.94;97.52;94269.97;5117680;28;20784;-79
2021/12/28 05:37:42;;;;;;;17.17;13.43;;;;;;;8.91;97.78;94264.16;5117595;28;20433;-79
2021/12/28 05:40:12;;;;;;;27.27;14.43;;;;;;;8.90;98.43;94263.34;5116354;28;21002;-79
2021/12/28 05:42:40;;;;;;;17.97;12.00;;;;;;;8.91;99.07;94265.00;5064959;28;20519;-78
2021/12/28 05:45:08;;;;;;;18.03;12.63;;;;;;;8.96;99.00;94270.69;5117007;28;20979;-80
2021/12/28 05:47:36;;;;;;;22.13;14.10;;;;;;;8.99;99.19;94272.19;5116852;28;20449;-79
2021/12/28 05:50:04;;;;;;;20.93;13.97;;;;;;;8.93;98.74;94270.09;5117313;28;20453;-80
2021/12/28 05:52:31;;;;;;;24.53;16.40;;;;;;;8.85;99.09;94275.19;5116229;28;20431;-78
2021/12/28 05:54:58;;;;;;;19.17;15.27;;;;;;;8.88;99.61;94269.69;5116203;28;20470;-79
2021/12/28 05:57:25;;;;;;;20.30;16.73;;;;;;;8.87;100.00;94268.84;5116159;28;20442;-80
2021/12/28 05:59:52;;;;;;;22.10;16.30;;;;;;;8.88;100.00;94274.91;5115865;28;20573;-79
2021/12/28 06:02:19;;;;;;;26.83;17.60;;;;;;;8.91;100.00;94277.25;5116569;28;20442;-79
2021/12/28 06:04:47;;;;;;;22.20;14.83;;;;;;;8.94;100.00;94272.56;5115865;28;20447;-79
2021/12/28 06:07:15;;;;;;;22.00;14.80;;;;;;;8.99;100.00;94274.81;5079917;28;20454;-80
2021/12/28 06:09:42;;;;;;;18.90;14.63;;;;;;;9.05;100.00;94271.66;5116066;28;20426;-79
2021/12/28 06:12:10;;;;;;;21.67;14.70;;;;;;;9.09;100.00;94273.03;5115423;28;20443;-79
2021/12/28 06:14:37;;;;;;;23.90;16.40;;;;;;;9.12;99.88;94272.75;5116738;28;20431;-79
2021/12/28 06:17:04;;;;;;;14.43;11.53;;;;;;;9.18;99.62;94276.59;5117761;28;20450;-81
2021/12/28 06:19:31;;;;;;;16.97;10.93;;;;;;;9.20;100.00;94280.72;5115975;28;20471;-79
2021/12/28 06:21:59;;;;;;;31.73;18.73;;;;;;;9.21;100.00;94282.38;5115470;28;20454;-79
2021/12/28 06:24:26;;;;;;;20.00;14.77;;;;;;;9.29;100.00;94279.94;5115700;28;20450;-79
2021/12/28 06:26:55;;;;;;;24.27;18.10;;;;;;;9.35;99.75;94280.34;5079245;28;20447;-80
2021/12/28 06:29:22;;;;;;;67.23;34.10;;;;;;;9.38;99.86;94282.69;5115214;28;20443;-79
2021/12/28 06:31:49;;;;;;;63.23;34.60;;;;;;;9.43;99.72;94286.53;5115342;28;20450;-79
2021/12/28 06:34:16;;;;;;;44.20;26.63;;;;;;;9.44;100.00;94282.13;5115664;28;20469;-78
2021/12/28 06:36:43;;;;;;;55.97;34.70;;;;;;;9.00;99.85;94279.06;5115081;28;20431;-79
2021/12/28 06:39:12;;;;;;;47.33;33.17;;;;;;;8.85;99.81;94283.84;5114905;28;20430;-79
2021/12/28 06:41:40;;;;;;;50.10;34.87;;;;;;;8.57;100.00;94289.84;5114077;28;20438;-79
2021/12/28 06:44:07;;;;;;;41.70;30.83;;;;;;;8.20;100.00;94284.31;5113964;28;20446;-79
2021/12/28 06:46:34;;;;;;;43.33;27.97;;;;;;;8.07;100.00;94289.72;5114260;28;20799;-79
2021/12/28 06:49:01;;;;;;;37.37;26.67;;;;;;;8.31;100.00;94300.72;5113838;28;20455;-79
2021/12/28 06:51:28;;;;;;;41.33;31.33;;;;;;;8.48;100.00;94296.69;5114095;28;20443;-79
2021/12/28 06:53:55;;;;;;;43.27;33.17;;;;;;;8.47;100.00;94302.88;5114506;28;20455;-79
2021/12/28 06:56:24;;;;;;;47.13;35.63;;;;;;;8.49;100.00;94295.75;5114203;28;20844;-79
2021/12/28 06:58:51;;;;;;;77.17;56.17;;;;;;;8.48;100.00;94307.16;5114446;28;20441;-79
2021/12/28 07:01:18;;;;;;;57.30;43.00;;;;;;;8.54;100.00;94300.56;5114073;28;20482;-79
2021/12/28 07:03:45;;;;;;;70.67;53.30;;;;;;;8.69;100.00;94317.56;5113732;28;20453;-79
2021/12/28 07:06:13;;;;;;;76.47;54.33;;;;;;;8.83;100.00;94319.78;5113274;28;20435;-79
2021/12/28 07:08:40;;;;;;;61.20;40.33;;;;;;;8.95;100.00;94320.50;5062189;28;20841;-79
2021/12/28 07:11:07;;;;;;;56.73;39.10;;;;;;;9.04;100.00;94317.09;5113581;28;20446;-79
2021/12/28 07:13:35;;;;;;;59.20;38.27;;;;;;;9.20;100.00;94316.56;5113345;28;20439;-79
2021/12/28 07:16:03;;;;;;;59.87;41.50;;;;;;;9.36;100.00;94321.28;5113187;28;20530;-79
2021/12/28 07:18:30;;;;;;;66.07;47.07;;;;;;;9.48;100.00;94320.16;5077294;28;20442;-79
2021/12/28 07:20:58;;;;;;;86.63;57.37;;;;;;;9.56;100.00;94326.38;5113086;28;20514;-79
2021/12/28 07:23:25;;;;;;;81.37;57.47;;;;;;;9.55;100.00;94322.13;5112641;28;20994;-79
2021/12/28 07:25:54;;;;;;;83.30;59.67;;;;;;;9.58;100.00;94319.22;5113397;28;20485;-79
2021/12/28 07:28:21;;;;;;;63.83;47.33;;;;;;;9.63;100.00;94326.66;5060624;28;20435;-79
2021/12/28 07:30:54;;;;;;;66.60;44.50;;;;;;;9.65;100.00;94332.59;5077702;28;20439;-79
2021/12/28 07:33:21;;;;;;;133.17;64.27;;;;;;;9.72;100.00;94335.47;5112857;28;20496;-79
2021/12/28 07:35:48;;;;;;;158.73;81.37;;;;;;;9.80;100.00;94340.84;5113152;28;20800;-78
2021/12/28 07:38:15;;;;;;;88.80;51.73;;;;;;;9.83;100.00;94340.56;5113186;28;20444;-79
2021/12/28 07:40:42;;;;;;;74.20;46.90;;;;;;;9.87;100.00;94334.91;5113132;28;20478;-79
2021/12/28 07:43:09;;;;;;;58.87;41.50;;;;;;;9.89;100.00;94335.59;5113443;28;20445;-79
2021/12/28 07:45:37;;;;;;;62.40;41.83;;;;;;;9.90;100.00;94332.03;5113593;28;20529;-79
2021/12/28 07:48:06;;;;;;;39.00;31.07;;;;;;;10.00;100.00;94333.78;5113302;28;20451;-79
2021/12/28 07:50:32;;;;;;;39.40;27.43;;;;;;;10.05;100.00;94332.41;5113257;28;20448;-79
2021/12/28 07:52:59;;;;;;;33.93;26.33;;;;;;;10.13;100.00;94327.31;5113265;28;20947;-79
2021/12/28 07:55:26;;;;;;;32.60;26.30;;;;;;;10.22;100.00;94326.47;5112924;28;20481;-79
2021/12/28 07:57:53;;;;;;;38.67;28.40;;;;;;;10.29;100.00;94331.16;5113098;28;20518;-79
2021/12/28 08:00:22;;;;;;;35.00;28.33;;;;;;;10.39;99.71;94334.56;5112861;28;20479;-79
2021/12/28 08:02:49;;;;;;;37.00;29.67;;;;;;;10.47;100.00;94332.91;5112978;28;20444;-79
2021/12/28 08:05:18;;;;;;;46.23;29.23;;;;;;;10.53;99.54;94324.44;5112753;28;20440;-79
2021/12/28 08:07:45;;;;;;;36.93;28.00;;;;;;;10.67;99.77;94328.38;5113245;28;20940;-79
2021/12/28 08:10:14;;;;;;;37.20;28.47;;;;;;;10.76;98.95;94329.34;5113059;28;20447;-79
2021/12/28 08:12:42;;;;;;;49.60;36.30;;;;;;;10.85;99.34;94334.53;5112906;28;20436;-78
2021/12/28 08:15:10;;;;;;;54.20;38.90;;;;;;;10.94;99.39;94321.50;5077337;28;20441;-79
2021/12/28 08:17:37;;;;;;;44.73;30.47;;;;;;;11.01;100.00;94315.53;5043745;28;20430;-79
2021/12/28 08:20:05;;;;;;;44.57;30.60;;;;;;;11.08;100.00;94324.47;5112683;28;21076;-79
2021/12/28 08:22:34;;;;;;;32.97;26.77;;;;;;;11.08;100.00;94323.66;5112966;28;20454;-78
2021/12/28 08:25:00;;;;;;;34.83;25.50;;;;;;;11.14;100.00;94312.53;5112561;28;20444;-79
2021/12/28 08:27:28;;;;;;;36.30;25.00;;;;;;;11.20;100.00;94313.75;5077156;28;20444;-79
2021/12/28 08:29:55;;;;;;;31.00;23.37;;;;;;;11.30;99.96;94317.97;5112621;28;20437;-79
2021/12/28 08:32:21;;;;;;;31.07;23.30;;;;;;;11.41;99.20;94324.81;5060577;28;20449;-78
2021/12/28 08:34:48;;;;;;;27.20;17.40;;;;;;;11.46;98.34;94322.56;5115052;28;20452;-78
2021/12/28 08:37:15;;;;;;;26.40;14.90;;;;;;;11.55;97.43;94321.66;5116178;28;20444;-79
2021/12/28 08:39:44;;;;;;;16.47;13.23;;;;;;;11.62;96.62;94322.72;5116330;28;20935;-79
2021/12/28 08:42:11;;;;;;;16.17;13.50;;;;;;;11.69;96.32;94320.31;5116549;28;20492;-78
2021/12/28 08:44:38;;;;;;;17.37;13.80;;;;;;;11.65;95.29;94311.09;5116564;28;20776;-79
2021/12/28 08:47:05;;;;;;;21.43;13.90;;;;;;;11.78;94.49;94320.25;5116062;28;20492;-79
2021/12/28 08:49:32;;;;;;;11.10;9.93;;;;;;;11.85;94.22;94314.38;5116577;28;20499;-80
2021/12/28 08:51:59;;;;;;;12.53;9.70;;;;;;;11.93;93.37;94315.31;5115863;28;20446;-80
2021/12/28 08:54:26;;;;;;;10.83;9.77;;;;;;;11.99;93.18;94319.94;5116229;28;20439;-79
2021/12/28 08:56:55;;;;;;;12.13;10.73;;;;;;;12.04;92.16;94309.78;5115934;28;20936;-79
2021/12/28 08:59:22;;;;;;;12.43;11.13;;;;;;;12.13;91.77;94305.41;5080049;28;20454;-79
2021/12/28 09:01:49;;;;;;;12.63;10.00;;;;;;;12.21;91.46;94308.13;5115866;28;20484;-79
2021/12/28 09:04:16;;;;;;;11.17;10.00;;;;;;;12.21;91.77;94300.22;5116255;28;20431;-79
2021/12/28 09:06:43;;;;;;;11.80;10.60;;;;;;;12.05;91.46;94297.47;5116304;28;20812;-79
2021/12/28 09:09:10;;;;;;;11.93;9.33;;;;;;;12.13;91.37;94300.16;5116212;28;20441;-79
2021/12/28 09:11:37;;;;;;;14.63;9.17;;;;;;;12.19;90.86;94301.34;5116123;28;20501;-80
2021/12/28 09:14:06;;;;;;;26.80;17.20;;;;;;;12.14;91.49;94298.34;5115489;28;20528;-79
2021/12/28 09:16:33;;;;;;;24.17;16.83;;;;;;;11.99;91.60;94298.09;5115807;28;20441;-79
2021/12/28 09:19:00;;;;;;;22.40;16.63;;;;;;;11.91;91.98;94300.66;5116394;28;20430;-79
2021/12/28 09:21:26;;;;;;;22.30;18.00;;;;;;;11.92;91.83;94303.13;5115796;28;20496;-79
2021/12/28 09:23:54;;;;;;;19.33;14.13;;;;;;;11.77;92.17;94301.97;5115533;28;20444;-79
2021/12/28 09:26:21;;;;;;;22.57;18.20;;;;;;;11.74;93.26;94294.41;5115583;28;20809;-79
2021/12/28 09:28:50;;;;;;;22.93;16.60;;;;;;;11.58;93.43;94295.09;5115378;28;20455;-79
2021/12/28 09:31:18;;;;;;;10.70;9.60;;;;;;;11.54;92.65;94301.59;5115636;28;20458;-79
2021/12/28 09:33:45;;;;;;;20.67;14.13;;;;;;;11.63;92.23;94295.47;5115029;28;20440;-80
2021/12/28 09:36:14;;;;;;;14.10;12.57;;;;;;;11.63;92.14;94299.91;5115060;28;20441;-79
2021/12/28 09:38:42;;;;;;;14.90;10.90;;;;;;;11.63;92.19;94290.22;5115002;28;20441;-79
2021/12/28 09:41:09;;;;;;;18.27;15.70;;;;;;;11.65;93.05;94290.88;5114927;28;20479;-80
2021/12/28 09:43:37;;;;;;;20.93;16.80;;;;;;;11.66;94.26;94278.56;5115560;28;20439;-79
2021/12/28 09:46:04;;;;;;;21.03;13.47;;;;;;;11.61;94.06;94279.03;5113920;28;20444;-79
2021/12/28 09:48:32;;;;;;;12.93;10.53;;;;;;;11.63;92.83;94281.50;5079336;28;20468;-79
2021/12/28 09:51:00;;;;;;;20.97;15.27;;;;;;;11.74;92.92;94279.47;5114919;28;20506;-79
2021/12/28 09:53:27;;;;;;;14.47;12.63;;;;;;;11.59;93.23;94281.00;5115097;28;20498;-79
2021/12/28 09:55:54;;;;;;;18.77;14.10;;;;;;;11.68;93.74;94277.44;5115333;28;20468;-79
2021/12/28 09:58:21;;;;;;;11.90;8.53;;;;;;;11.64;92.32;94283.16;5115150;28;20450;-78
2021/12/28 10:00:48;;;;;;;12.80;10.57;;;;;;;11.52;92.82;94282.53;5114762;28;20538;-79
2021/12/28 10:03:16;;;;;;;15.77;10.37;;;;;;;11.71;92.98;94286.81;5079531;28;20445;-79
2021/12/28 10:05:45;;;;;;;13.50;10.63;;;;;;;11.83;91.62;94274.28;5115354;28;20439;-79
2021/12/28 10:08:13;;;;;;;14.40;11.67;;;;;;;12.04;91.29;94278.22;5115234;28;20475;-79
2021/12/28 10:10:44;;;;;;;16.33;10.57;;;;;;;12.15;90.20;94274.53;5114884;28;20486;-78
2021/12/28 10:13:21;;;;;;;6.80;6.13;;;;;;;12.13;88.06;94284.38;5115233;28;20906;-79
2021/12/28 10:15:50;;;;;;;13.80;10.90;;;;;;;12.16;88.89;94278.81;5115421;28;20449;-79
2021/12/28 10:18:17;;;;;;;11.43;9.00;;;;;;;12.17;88.30;94277.03;5114724;28;20444;-78
2021/12/28 10:20:48;;;;;;;10.43;8.77;;;;;;;12.22;87.24;94278.19;5114714;28;20592;-79
2021/12/28 10:23:17;;;;;;;19.20;10.83;;;;;;;12.36;87.51;94272.34;5114977;28;20904;-79
2021/12/28 10:25:47;;;;;;;10.77;9.13;;;;;;;12.37;86.45;94265.28;5078572;28;20440;-79
2021/12/28 10:28:17;;;;;;;11.53;8.37;;;;;;;12.47;86.64;94276.53;5114419;28;20546;-79
2021/12/28 10:30:46;;;;;;;15.80;12.70;;;;;;;12.47;87.46;94258.13;5114586;28;20445;-79
2021/12/28 10:33:16;;;;;;;9.57;7.83;;;;;;;12.41;85.82;94270.06;5114556;28;20442;-79
2021/12/28 10:35:47;;;;;;;10.53;7.83;;;;;;;12.38;86.11;94264.31;5079116;28;20477;-79
2021/12/28 10:38:17;;;;;;;10.43;9.30;;;;;;;12.54;85.76;94266.19;5115047;28;20454;-79
2021/12/28 10:40:47;;;;;;;13.70;11.83;;;;;;;12.60;86.81;94260.31;5115094;28;20783;-79
2021/12/28 10:43:15;;;;;;;17.60;11.83;;;;;;;12.75;87.46;94264.00;5113858;28;20444;-79
2021/12/28 10:45:44;;;;;;;18.80;11.80;;;;;;;12.80;86.76;94266.97;5114532;28;20455;-79
2021/12/28 10:48:15;;;;;;;11.50;8.77;;;;;;;12.72;84.84;94266.94;5114704;28;20551;-79
2021/12/28 10:50:51;;;;;;;10.63;9.47;;;;;;;12.60;84.61;94262.94;5114802;28;20450;-79
2021/12/28 10:53:24;;;;;;;11.63;8.17;;;;;;;12.47;85.40;94259.94;5113899;28;20528;-79
2021/12/28 10:55:54;;;;;;;8.73;7.93;;;;;;;12.17;87.21;94263.88;5113637;28;20501;-78
2021/12/28 10:58:25;;;;;;;15.50;9.10;;;;;;;12.33;86.26;94259.50;5113549;28;20503;-79
2021/12/28 11:00:53;;;;;;;10.47;7.40;;;;;;;12.30;86.44;94264.25;5113615;28;20489;-79
2021/12/28 11:03:26;;;;;;;10.00;7.50;;;;;;;11.93;87.25;94261.91;5113257;28;20446;-79
2021/12/28 11:05:56;;;;;;;9.37;8.30;;;;;;;11.85;88.50;94260.00;5113527;28;20450;-79
2021/12/28 11:08:26;;;;;;;11.87;9.03;;;;;;;11.85;88.83;94259.19;5113565;28;20447;-79
2021/12/28 11:10:56;;;;;;;8.70;7.57;;;;;;;11.93;88.69;94249.56;5114230;28;20440;-79
2021/12/28 11:13:25;;;;;;;9.30;8.40;;;;;;;12.07;88.87;94248.16;5113587;28;20446;-79
2021/12/28 11:15:52;;;;;;;12.03;7.47;;;;;;;12.12;87.83;94245.91;5113602;28;20438;-79
2021/12/28 11:18:22;;;;;;;10.93;8.40;;;;;;;12.00;88.57;94242.72;5113679;28;20449;-79
2021/12/28 11:20:50;;;;;;;10.97;6.90;;;;;;;11.89;88.25;94245.59;5113691;28;20810;-79
2021/12/28 11:31:01;;;;;;;11.30;7.37;;;;;;;12.14;88.10;94228.16;4972717;28;20797;-79
2021/12/28 11:33:41;;;;;;;10.57;8.37;;;;;;;12.32;87.06;94242.06;4947704;28;20467;-79